Time;durP1;ratioP1;P1;durP2;ratioP2;P2;SDS_P1;SDS_P2;PMS_P1;PMS_P2;Temp;Humidity;BMP_temperature;BMP_pressure;BME280_temperature;BME280_humidity;BME280_pressure;Samples;Min_cycle;Max_cycle;Signal;HPM_P1;HPM_P2
2021/12/13 00:04:03;;;;;;;8.40;7.50;;;;;;;8.38;62.85;98868.72;8315026;28;20229;-88
2021/12/13 00:08:11;;;;;;;9.07;7.63;;;;;;;8.45;62.61;98866.03;8315525;28;20236;-88
2021/12/13 00:12:20;;;;;;;7.77;6.90;;;;;;;8.43;62.77;98863.47;8314941;28;20239;-88
2021/12/13 00:16:27;;;;;;;7.20;6.50;;;;;;;8.45;62.90;98856.56;8315373;28;20243;-88
2021/12/13 00:20:37;;;;;;;7.17;6.20;;;;;;;8.52;62.68;98859.88;8316375;28;20240;-88
2021/12/13 00:24:42;;;;;;;6.53;5.93;;;;;;;8.21;63.57;98863.06;8322133;28;20229;-88
2021/12/13 00:28:45;;;;;;;6.50;5.80;;;;;;;8.37;63.39;98861.84;8321524;28;20233;-88
2021/12/13 00:33:03;;;;;;;6.73;6.07;;;;;;;8.44;63.28;98865.19;8321838;28;20240;-88
2021/12/13 00:37:09;;;;;;;7.07;6.43;;;;;;;8.34;63.95;98864.50;8321737;28;20229;-88
2021/12/13 00:41:15;;;;;;;6.90;6.30;;;;;;;8.56;63.66;98871.81;8319578;28;20527;-86
2021/12/13 00:45:21;;;;;;;7.43;6.57;;;;;;;8.54;63.75;98871.84;8256568;28;20536;-88
2021/12/13 00:49:28;;;;;;;7.37;6.67;;;;;;;8.58;63.63;98870.91;8256348;28;20245;-88
2021/12/13 00:53:34;;;;;;;8.47;7.07;;;;;;;8.57;63.67;98871.78;8256577;28;20246;-88
2021/12/13 00:57:42;;;;;;;7.97;6.80;;;;;;;8.61;63.84;98867.41;8256331;28;20240;-88
2021/12/13 01:01:51;;;;;;;7.80;7.00;;;;;;;8.68;63.68;98881.91;8256061;28;20260;-87
2021/12/13 01:06:13;;;;;;;7.07;6.37;;;;;;;8.52;63.95;98878.78;8255895;28;20249;-88
2021/12/13 01:10:54;;;;;;;9.30;7.00;;;;;;;8.68;63.57;98881.91;8255523;28;20537;-88
2021/12/13 01:15:01;;;;;;;7.87;7.07;;;;;;;8.50;63.97;98874.53;8255943;28;20240;-88
2021/12/13 01:19:27;;;;;;;8.77;6.70;;;;;;;8.73;63.69;98887.78;8255830;28;20241;-88
2021/12/13 01:23:43;;;;;;;7.97;7.17;;;;;;;8.72;63.40;98891.28;8255476;28;20241;-88
2021/12/13 01:27:54;;;;;;;6.83;6.20;;;;;;;8.76;63.43;98892.91;8255243;28;20234;-87
2021/12/13 01:32:00;;;;;;;7.73;6.93;;;;;;;8.76;63.50;98892.06;8254977;28;20429;-88
2021/12/13 01:36:07;;;;;;;7.47;6.77;;;;;;;8.66;64.00;98895.69;8254761;28;20238;-88
2021/12/13 01:40:14;;;;;;;7.40;6.70;;;;;;;8.78;63.65;98890.28;8272330;28;20253;-87
2021/12/13 01:44:19;;;;;;;8.03;7.23;;;;;;;8.66;64.03;98890.53;8287844;28;20233;-88
2021/12/13 01:48:26;;;;;;;7.70;6.90;;;;;;;8.60;64.30;98894.97;8288972;28;20237;-89
2021/12/13 01:52:33;;;;;;;7.60;6.90;;;;;;;8.59;64.73;98882.94;8287169;28;20248;-86
2021/12/13 01:56:44;;;;;;;8.03;7.10;;;;;;;8.80;63.77;98888.50;8286783;28;20233;-88
2021/12/13 02:05:09;;;;;;;7.63;6.93;;;;;;;8.82;63.71;98860.91;8285816;28;20421;-87
2021/12/13 02:09:16;;;;;;;7.47;6.77;;;;;;;8.76;64.20;98867.06;8285718;28;20559;-87
2021/12/13 02:13:23;;;;;;;8.33;7.57;;;;;;;8.82;64.01;98876.41;8285899;28;20233;-88
2021/12/13 02:17:26;;;;;;;7.87;7.07;;;;;;;8.86;63.92;98867.72;8285912;28;20234;-88
2021/12/13 02:21:31;;;;;;;8.60;7.70;;;;;;;8.78;64.04;98867.03;8285838;28;20238;-89
2021/12/13 02:25:37;;;;;;;8.30;7.47;;;;;;;8.79;64.09;98879.91;8285930;28;20233;-88
2021/12/13 02:29:42;;;;;;;9.53;8.60;;;;;;;8.72;64.34;98885.22;8285696;28;20557;-88
2021/12/13 02:33:53;;;;;;;9.10;8.30;;;;;;;8.75;64.41;98878.28;8285648;28;20244;-89
2021/12/13 02:37:57;;;;;;;9.73;8.83;;;;;;;8.77;64.48;98888.56;8285896;28;20240;-88
2021/12/13 02:42:05;;;;;;;8.93;8.13;;;;;;;8.85;64.30;98896.16;8252795;28;20234;-88
2021/12/13 02:46:08;;;;;;;8.90;8.10;;;;;;;8.80;64.44;98891.94;8252698;28;20378;-88
2021/12/13 02:50:15;;;;;;;8.70;7.90;;;;;;;8.94;64.00;98889.03;8252758;28;20304;-88
2021/12/13 02:54:21;;;;;;;9.20;8.40;;;;;;;8.89;64.44;98890.03;8252408;28;20230;-87
2021/12/13 02:58:28;;;;;;;8.80;8.00;;;;;;;8.96;64.03;98896.75;8251839;28;20440;-88
2021/12/13 03:02:35;;;;;;;8.60;7.80;;;;;;;8.97;63.77;98901.06;8251721;28;20256;-88
2021/12/13 03:06:47;;;;;;;9.47;8.57;;;;;;;9.06;63.41;98895.66;8252077;28;20246;-88
2021/12/13 03:10:55;;;;;;;9.70;8.80;;;;;;;8.98;63.98;98902.72;8251817;28;20238;-88
2021/12/13 03:15:01;;;;;;;10.07;9.07;;;;;;;9.02;63.89;98901.78;8252005;28;20241;-88
2021/12/13 03:19:09;;;;;;;11.40;9.80;;;;;;;8.94;63.63;98901.94;8251810;28;20238;-88
2021/12/13 03:23:19;;;;;;;10.00;9.10;;;;;;;8.96;64.25;98912.25;8251320;28;20236;-87
2021/12/13 03:27:33;;;;;;;9.13;8.33;;;;;;;9.00;63.60;98898.38;8251331;28;20238;-88
2021/12/13 03:31:42;;;;;;;9.83;8.93;;;;;;;9.04;63.64;98897.41;8251452;28;20238;-88
2021/12/13 03:35:51;;;;;;;9.93;9.03;;;;;;;9.04;63.90;98904.34;8251570;28;20230;-89
2021/12/13 03:39:56;;;;;;;9.03;8.23;;;;;;;9.07;63.78;98904.28;8280540;28;20240;-87
2021/12/13 03:44:06;;;;;;;10.87;8.73;;;;;;;9.06;63.67;98899.97;8316117;28;20229;-88
2021/12/13 03:48:14;;;;;;;8.37;7.67;;;;;;;9.08;63.36;98893.03;8315962;28;20233;-88
2021/12/13 03:52:20;;;;;;;9.10;8.30;;;;;;;9.12;63.29;98897.25;8315696;28;20557;-87
2021/12/13 03:56:26;;;;;;;8.40;7.70;;;;;;;9.14;63.52;98900.66;8315062;28;20570;-88
2021/12/13 04:00:33;;;;;;;9.37;8.47;;;;;;;9.09;63.52;98908.50;8315473;28;20247;-88
2021/12/13 04:04:40;;;;;;;8.80;8.03;;;;;;;9.10;63.54;98910.22;8315688;28;20242;-89
2021/12/13 04:08:44;;;;;;;9.13;8.33;;;;;;;9.16;63.44;98911.81;8315426;28;20240;-88
2021/12/13 04:12:52;;;;;;;8.67;7.87;;;;;;;9.15;63.50;98918.69;8315354;28;20288;-89
2021/12/13 04:17:06;;;;;;;8.83;8.10;;;;;;;9.19;63.45;98906.56;8315521;28;20232;-88
2021/12/13 04:21:12;;;;;;;8.97;8.07;;;;;;;9.15;63.45;98918.69;8315293;28;20232;-87
2021/12/13 04:25:17;;;;;;;9.10;8.30;;;;;;;9.17;63.76;98919.50;8314914;28;20235;-88
2021/12/13 04:29:26;;;;;;;8.93;8.10;;;;;;;9.15;63.96;98929.03;8315109;28;20237;-87
2021/12/13 04:33:32;;;;;;;8.50;7.70;;;;;;;8.99;64.07;98927.69;8314901;28;20259;-88
2021/12/13 04:37:44;;;;;;;9.47;8.50;;;;;;;9.13;63.48;98924.78;8314899;28;20240;-88
2021/12/13 04:41:49;;;;;;;8.40;7.70;;;;;;;9.20;63.64;98914.28;8314652;28;20240;-88
2021/12/13 04:45:56;;;;;;;8.70;7.83;;;;;;;9.17;63.80;98914.34;8314813;28;20251;-88
2021/12/13 04:50:07;;;;;;;9.60;8.80;;;;;;;9.15;63.74;98923.88;8314682;28;20236;-88
2021/12/13 04:54:14;;;;;;;9.43;8.63;;;;;;;9.16;63.76;98932.50;8314860;28;20233;-88
2021/12/13 04:58:18;;;;;;;9.77;8.97;;;;;;;8.97;64.39;98937.22;8317407;28;20225;-88
2021/12/13 05:02:23;;;;;;;9.83;8.97;;;;;;;9.19;63.97;98942.75;8308947;28;20416;-87
2021/12/13 05:06:28;;;;;;;9.60;8.80;;;;;;;9.13;64.23;98954.06;8327827;28;20232;-87
2021/12/13 05:10:34;;;;;;;9.10;8.40;;;;;;;9.02;64.46;98960.38;8317156;28;20256;-88
2021/12/13 05:14:40;;;;;;;9.77;8.97;;;;;;;8.90;64.88;98954.56;8319897;28;20233;-88
2021/12/13 05:18:46;;;;;;;9.57;8.77;;;;;;;9.06;64.68;98954.22;8319696;28;20241;-84
2021/12/13 05:22:59;;;;;;;9.17;8.43;;;;;;;9.10;64.66;98961.91;8320177;28;20340;-86
2021/12/13 05:27:07;;;;;;;8.10;7.50;;;;;;;9.08;64.45;98962.81;8319893;28;20258;-87
2021/12/13 05:31:17;;;;;;;8.63;7.93;;;;;;;9.20;64.21;98971.13;8320197;28;20536;-87
2021/12/13 05:35:22;;;;;;;8.87;8.17;;;;;;;9.22;64.21;98976.28;8286593;28;20465;-87
2021/12/13 05:39:26;;;;;;;9.47;8.67;;;;;;;9.24;64.00;98982.25;8286676;28;20237;-87
2021/12/13 05:43:33;;;;;;;9.80;9.00;;;;;;;9.26;64.00;98985.66;8287201;28;20532;-88
2021/12/13 05:47:37;;;;;;;10.70;9.70;;;;;;;9.24;64.22;98987.44;8287666;28;20229;-88
2021/12/13 05:51:42;;;;;;;9.70;8.90;;;;;;;9.25;64.05;98996.03;8287317;28;20237;-89
2021/12/13 05:56:02;;;;;;;9.53;8.73;;;;;;;9.28;63.72;99001.13;8288431;28;20233;-87
2021/12/13 06:00:11;;;;;;;8.87;8.17;;;;;;;9.29;63.70;99003.69;8287527;28;20238;-87
2021/12/13 06:04:21;;;;;;;9.70;8.90;;;;;;;9.33;63.79;99009.66;8285928;28;20232;-90
2021/12/13 06:08:29;;;;;;;9.10;8.40;;;;;;;9.29;63.95;99014.03;8312136;28;20240;-90
2021/12/13 06:12:38;;;;;;;9.10;8.20;;;;;;;9.30;63.91;99010.53;8296476;28;20249;-90
2021/12/13 06:16:51;;;;;;;8.20;7.60;;;;;;;9.33;63.50;99012.22;8288008;28;20237;-89
2021/12/13 06:20:57;;;;;;;8.93;8.13;;;;;;;9.33;63.72;99017.41;8317719;28;20241;-85
2021/12/13 06:25:04;;;;;;;8.70;8.00;;;;;;;9.30;63.74;99014.88;8318269;28;20229;-84
2021/12/13 06:29:09;;;;;;;9.73;8.93;;;;;;;9.08;64.75;99019.66;8307585;28;20447;-89
2021/12/13 06:33:13;;;;;;;9.50;8.73;;;;;;;9.02;64.92;99017.19;8311775;28;20237;-87
2021/12/13 06:37:24;;;;;;;9.13;8.43;;;;;;;9.25;64.37;99012.38;8292922;28;20248;-87
2021/12/13 06:41:41;;;;;;;13.13;6.47;;;;;;;10.46;80.28;99011.16;8311936;28;20237;-73
2021/12/13 06:45:44;;;;;;;9.23;8.37;;;;;;;11.22;61.51;99015.03;8317125;28;20404;-83
2021/12/13 06:49:52;;;;;;;8.33;7.60;;;;;;;10.26;61.75;99018.56;8317737;28;20233;-89
2021/12/13 06:54:05;;;;;;;7.57;6.87;;;;;;;9.95;62.56;99021.94;8317522;28;20233;-88
2021/12/13 06:58:18;;;;;;;8.30;7.50;;;;;;;9.67;63.23;99032.13;8317169;28;20241;-88
2021/12/13 07:02:23;;;;;;;6.60;6.00;;;;;;;9.53;63.74;99030.69;8316785;28;20270;-89
2021/12/13 07:06:28;;;;;;;7.07;6.47;;;;;;;9.58;63.50;99044.38;8317140;28;20259;-90
2021/12/13 07:10:40;;;;;;;7.17;6.50;;;;;;;9.49;63.81;99044.59;8316987;28;20248;-90
2021/12/13 07:14:43;;;;;;;6.93;6.33;;;;;;;9.39;63.77;99048.28;8316259;28;20256;-90
2021/12/13 07:18:49;;;;;;;6.40;5.90;;;;;;;9.40;64.07;99055.13;8316843;28;20236;-90
2021/12/13 07:22:58;;;;;;;7.33;6.73;;;;;;;9.45;63.78;99042.97;8283681;28;20287;-90
2021/12/13 07:27:06;;;;;;;8.13;7.43;;;;;;;9.45;64.17;99048.13;8317011;28;20233;-90
2021/12/13 07:31:10;;;;;;;9.23;7.77;;;;;;;9.40;64.49;99049.97;8316387;28;20430;-90
2021/12/13 07:35:16;;;;;;;6.87;6.37;;;;;;;9.39;64.40;99054.28;8315490;28;20229;-91
2021/12/13 07:39:25;;;;;;;6.80;6.30;;;;;;;9.38;64.10;99062.06;8315439;28;20240;-90
2021/12/13 07:43:29;;;;;;;7.60;6.00;;;;;;;9.36;64.49;99063.84;8315947;28;20232;-89
2021/12/13 07:47:32;;;;;;;6.60;6.00;;;;;;;9.36;64.49;99063.84;8315774;28;20229;-91
2021/12/13 07:51:39;;;;;;;5.80;5.40;;;;;;;9.33;64.73;99064.78;8315649;28;20244;-92
2021/12/13 07:55:47;;;;;;;6.37;5.87;;;;;;;9.38;64.59;99067.25;8311306;28;20233;-91
2021/12/13 07:59:51;;;;;;;6.77;6.17;;;;;;;9.39;64.40;99082.72;8283395;28;20237;-91
2021/12/13 08:03:56;;;;;;;6.20;5.70;;;;;;;9.41;64.56;99077.53;8283435;28;20536;-92
2021/12/13 08:08:01;;;;;;;6.57;6.07;;;;;;;9.36;64.87;99082.78;8282821;28;20240;-89
2021/12/13 08:12:16;;;;;;;7.07;6.47;;;;;;;9.42;64.50;99086.97;8282985;28;20237;-93
2021/12/13 08:16:29;;;;;;;7.00;6.40;;;;;;;9.45;64.79;99088.66;8290727;28;20260;-90
2021/12/13 08:20:35;;;;;;;6.90;6.37;;;;;;;9.48;64.64;99086.00;8282853;28;20260;-93
2021/12/13 08:24:43;;;;;;;6.80;6.30;;;;;;;9.46;64.93;99088.63;8283142;28;20240;-91
2021/12/13 08:28:50;;;;;;;6.60;6.10;;;;;;;9.52;64.67;99090.19;8283240;28;20262;-87
2021/12/13 08:32:59;;;;;;;6.73;6.17;;;;;;;9.51;64.96;99093.69;8282428;28;20256;-90
2021/12/13 08:37:11;;;;;;;6.97;6.47;;;;;;;9.51;64.62;99089.38;8282889;28;20233;-90
2021/12/13 08:41:23;;;;;;;6.47;5.97;;;;;;;9.59;64.59;99090.06;8315242;28;20232;-86
2021/12/13 08:45:31;;;;;;;6.50;6.00;;;;;;;9.58;64.55;99090.94;8321635;28;20236;-89
2021/12/13 08:49:38;;;;;;;7.13;6.53;;;;;;;9.64;64.96;99089.94;8321194;28;20238;-89
2021/12/13 08:53:41;;;;;;;7.20;6.60;;;;;;;9.64;65.11;99096.88;8321243;28;20237;-89
2021/12/13 08:57:49;;;;;;;7.57;6.93;;;;;;;9.66;65.06;99095.94;8321177;28;20248;-88
2021/12/13 09:01:56;;;;;;;8.10;7.40;;;;;;;9.64;65.35;99099.44;8320944;28;20236;-89
2021/12/13 09:06:14;;;;;;;7.90;7.20;;;;;;;9.74;65.05;99106.09;8320965;28;20287;-88
2021/12/13 09:10:17;;;;;;;7.57;6.97;;;;;;;9.75;64.98;99100.06;8319683;28;20236;-86
2021/12/13 09:14:22;;;;;;;7.37;6.73;;;;;;;9.89;65.18;99105.75;8320365;28;20241;-86
2021/12/13 09:18:27;;;;;;;8.00;7.20;;;;;;;9.95;64.84;99104.75;8320561;28;20232;-86
2021/12/13 09:22:33;;;;;;;7.60;6.93;;;;;;;9.96;65.30;99111.66;8319652;28;20237;-83
2021/12/13 09:26:42;;;;;;;7.50;6.90;;;;;;;9.99;65.04;99111.56;8320336;28;20239;-79
2021/12/13 09:30:48;;;;;;;7.50;6.80;;;;;;;10.01;64.81;99108.94;8319783;28;20536;-78
2021/12/13 09:34:59;;;;;;;6.43;5.90;;;;;;;9.97;64.60;99106.41;8320015;28;20248;-77
2021/12/13 09:39:06;;;;;;;6.50;5.97;;;;;;;9.95;64.68;99105.59;8319089;28;20233;-78
2021/12/13 09:43:09;;;;;;;6.10;5.60;;;;;;;10.06;64.79;99107.09;8319898;28;20241;-84
2021/12/13 09:47:15;;;;;;;6.30;5.80;;;;;;;10.08;65.09;99106.16;8318987;28;20229;-84
2021/12/13 09:51:23;;;;;;;6.30;5.80;;;;;;;9.97;64.82;99113.34;8319922;28;20303;-82
2021/12/13 09:55:30;;;;;;;6.30;5.70;;;;;;;10.15;64.66;99109.47;8317677;28;20540;-79
2021/12/13 09:59:37;;;;;;;5.63;5.13;;;;;;;10.19;64.88;99105.91;8318937;28;20532;-84
2021/12/13 10:03:52;;;;;;;5.73;5.23;;;;;;;10.16;65.29;99106.81;8318664;28;20232;-80
2021/12/13 10:08:02;;;;;;;5.10;4.70;;;;;;;10.20;65.58;99101.56;8318562;28;20236;-81
2021/12/13 10:12:09;;;;;;;6.47;5.87;;;;;;;10.26;65.66;99093.66;8306248;28;20248;-84
2021/12/13 10:16:15;;;;;;;7.67;6.50;;;;;;;10.05;66.21;99098.50;8318245;28;20229;-80
2021/12/13 10:20:21;;;;;;;4.97;4.50;;;;;;;10.18;65.97;99096.44;8318434;28;20232;-81
2021/12/13 10:24:34;;;;;;;5.37;4.47;;;;;;;10.02;65.88;99088.19;8318224;28;20236;-72
2021/12/13 10:28:40;;;;;;;6.10;4.40;;;;;;;10.31;65.69;99078.91;8317656;28;20243;-71
2021/12/13 10:32:44;;;;;;;3.93;3.63;;;;;;;10.36;65.22;99084.81;8317917;28;20232;-70
2021/12/13 10:36:51;;;;;;;3.90;3.50;;;;;;;10.37;65.12;99073.56;8317361;28;20400;-71
2021/12/13 10:40:58;;;;;;;3.47;3.10;;;;;;;10.43;64.94;99073.38;8317084;28;20243;-71
2021/12/13 10:45:04;;;;;;;3.47;3.17;;;;;;;10.42;65.20;99068.28;8316972;28;20417;-72
2021/12/13 10:49:09;;;;;;;2.80;2.60;;;;;;;10.47;65.39;99063.78;8316788;28;20233;-71
2021/12/13 10:53:16;;;;;;;3.83;3.00;;;;;;;10.45;65.34;99073.34;8316240;28;20239;-69
2021/12/13 10:57:23;;;;;;;3.30;3.10;;;;;;;10.41;64.88;99071.72;8316058;28;20236;-69
2021/12/13 11:01:29;;;;;;;4.17;3.77;;;;;;;10.42;64.64;99074.28;8314854;28;20540;-69
2021/12/13 11:05:32;;;;;;;5.50;5.00;;;;;;;10.33;65.10;99064.16;8320594;28;20244;-69
2021/12/13 11:09:37;;;;;;;6.70;6.03;;;;;;;10.37;64.83;99068.38;8348664;28;20231;-71
2021/12/13 11:13:42;;;;;;;9.30;6.73;;;;;;;10.37;64.96;99066.63;8349239;28;20232;-70
2021/12/13 11:17:46;;;;;;;7.30;6.60;;;;;;;10.43;65.56;99069.94;8348900;28;20228;-70
2021/12/13 11:21:54;;;;;;;6.97;6.30;;;;;;;10.37;64.88;99069.22;8349220;28;20243;-70
2021/12/13 11:26:00;;;;;;;7.73;7.00;;;;;;;10.49;64.43;99069.78;8349270;28;20228;-70
2021/12/13 11:30:07;;;;;;;7.40;6.70;;;;;;;10.55;64.10;99067.06;8349077;28;20235;-70
2021/12/13 11:34:31;;;;;;;7.43;6.73;;;;;;;10.60;63.80;99062.56;8348592;28;20566;-71
2021/12/13 11:39:12;;;;;;;7.93;7.17;;;;;;;10.68;64.40;99062.38;8343085;28;20235;-71
2021/12/13 11:43:27;;;;;;;7.77;7.07;;;;;;;10.62;64.33;99070.31;8306292;28;20543;-70
2021/12/13 11:47:44;;;;;;;10.03;9.03;;;;;;;10.57;64.08;99065.28;8315593;28;20236;-71
2021/12/13 11:52:07;;;;;;;10.03;9.13;;;;;;;10.51;64.42;99062.84;8315551;28;20257;-70
2021/12/13 11:56:36;;;;;;;23.03;19.60;;;;;;;10.51;64.44;99057.66;8315425;28;20236;-70
2021/12/13 12:00:59;;;;;;;15.67;11.77;;;;;;;10.52;64.46;99061.94;8279325;28;20336;-70
2021/12/13 12:05:38;;;;;;;19.30;16.40;;;;;;;10.57;64.54;99065.28;8282415;28;20289;-70
2021/12/13 12:09:57;;;;;;;20.70;18.60;;;;;;;10.44;65.40;99056.13;8282090;28;20226;-80
2021/12/13 12:14:04;;;;;;;13.50;12.10;;;;;;;10.42;64.85;99063.94;8277413;28;20237;-78
2021/12/13 12:18:10;;;;;;;14.13;12.20;;;;;;;10.40;65.84;99057.09;8281557;28;20230;-83
2021/12/13 12:22:17;;;;;;;13.10;11.80;;;;;;;10.48;65.90;99062.91;8281900;28;20235;-82
2021/12/13 12:26:21;;;;;;;15.13;12.57;;;;;;;10.47;65.48;99056.03;8305674;28;20232;-83
2021/12/13 12:30:26;;;;;;;15.67;13.13;;;;;;;10.54;65.67;99060.16;8314515;28;20241;-85
2021/12/13 12:34:29;;;;;;;16.20;13.30;;;;;;;10.52;65.43;99057.59;8314471;28;20409;-83
2021/12/13 12:39:07;;;;;;;15.70;13.70;;;;;;;10.57;64.94;99049.72;8314649;28;20574;-84
2021/12/13 12:43:12;;;;;;;13.30;11.97;;;;;;;10.63;65.75;99057.31;8313777;28;20237;-84
2021/12/13 12:47:16;;;;;;;14.60;12.90;;;;;;;10.56;65.95;99050.59;8313278;28;20232;-83
2021/12/13 12:51:21;;;;;;;16.37;13.97;;;;;;;10.55;65.91;99054.94;8313435;28;20292;-81
2021/12/13 12:55:27;;;;;;;15.73;13.13;;;;;;;10.54;65.41;99063.59;8310928;28;20232;-84
2021/12/13 12:59:32;;;;;;;14.80;12.93;;;;;;;10.57;65.93;99054.91;8312913;28;20229;-71
2021/12/13 13:03:37;;;;;;;12.93;11.53;;;;;;;10.53;66.07;99048.13;8313157;28;20239;-70
2021/12/13 13:07:41;;;;;;;13.93;10.93;;;;;;;10.56;66.28;99041.09;8313105;28;20229;-70
2021/12/13 13:11:48;;;;;;;16.30;12.07;;;;;;;10.59;66.05;99041.94;8310620;28;20566;-69
2021/12/13 13:15:53;;;;;;;18.07;12.27;;;;;;;10.55;65.91;99043.75;8313642;28;20562;-69
2021/12/13 13:19:59;;;;;;;13.17;11.83;;;;;;;10.60;65.99;99035.84;8314310;28;20229;-68
2021/12/13 13:24:03;;;;;;;15.80;13.00;;;;;;;10.60;66.35;99041.84;8313957;28;20239;-69
2021/12/13 13:28:18;;;;;;;17.07;13.20;;;;;;;10.55;66.54;99038.56;8315394;28;20236;-72
2021/12/13 13:32:21;;;;;;;16.40;12.90;;;;;;;10.54;66.41;99040.28;8319034;28;20543;-68
2021/12/13 13:36:29;;;;;;;14.53;12.37;;;;;;;10.78;65.93;99037.94;8319083;28;20233;-70
2021/12/13 13:40:34;;;;;;;14.30;12.07;;;;;;;10.79;65.74;99037.00;8318800;28;20256;-69
2021/12/13 13:44:44;;;;;;;15.83;11.00;;;;;;;10.79;65.54;99036.19;8319203;28;20241;-69
2021/12/13 13:48:47;;;;;;;11.13;9.97;;;;;;;10.81;65.20;99039.56;8318964;28;20232;-69
2021/12/13 13:52:51;;;;;;;15.37;11.27;;;;;;;10.81;65.64;99043.00;8318933;28;20243;-89
2021/12/13 13:56:54;;;;;;;13.37;11.43;;;;;;;10.79;65.30;99046.53;8318587;28;20555;-86
2021/12/13 14:01:02;;;;;;;10.97;9.77;;;;;;;10.73;65.89;99050.16;8315619;28;20232;-89
2021/12/13 14:05:10;;;;;;;14.30;11.90;;;;;;;10.85;65.39;99054.13;8319349;28;20302;-88
2021/12/13 14:09:16;;;;;;;15.77;11.67;;;;;;;10.79;65.65;99060.34;8318255;28;20270;-86
2021/12/13 14:13:22;;;;;;;15.47;10.87;;;;;;;10.77;65.54;99059.53;8339340;28;20261;-87
2021/12/13 14:17:38;;;;;;;14.90;11.90;;;;;;;10.73;65.51;99068.28;8344945;28;20232;-84
2021/12/13 14:21:45;;;;;;;13.23;10.60;;;;;;;10.76;65.34;99063.03;8316900;28;20228;-83
2021/12/13 14:25:53;;;;;;;12.90;10.67;;;;;;;10.71;66.14;99063.13;8314948;28;20229;-85
2021/12/13 14:30:13;;;;;;;13.57;11.20;;;;;;;10.66;65.77;99057.25;8316635;28;20225;-84
2021/12/13 14:34:20;;;;;;;14.80;12.20;;;;;;;10.76;65.50;99066.47;8314961;28;20236;-84
2021/12/13 14:38:27;;;;;;;11.97;10.73;;;;;;;10.82;65.21;99070.63;8317067;28;20236;-85
2021/12/13 14:42:32;;;;;;;13.77;10.90;;;;;;;10.75;65.48;99069.94;8331890;28;20427;-72
2021/12/13 14:46:42;;;;;;;11.47;10.27;;;;;;;10.57;65.60;99060.94;8313144;28;20238;-72
2021/12/13 14:50:52;;;;;;;12.20;10.40;;;;;;;10.63;65.89;99070.28;8298818;28;20224;-72
2021/12/13 14:54:59;;;;;;;15.40;11.80;;;;;;;10.67;65.94;99069.31;8290047;28;20574;-72
2021/12/13 14:59:04;;;;;;;12.93;10.77;;;;;;;10.68;66.26;99075.31;8313457;28;20256;-72
2021/12/13 15:03:10;;;;;;;13.37;11.17;;;;;;;10.55;66.44;99073.06;8305401;28;20249;-72
2021/12/13 15:07:17;;;;;;;13.17;11.40;;;;;;;10.61;65.93;99076.41;8299271;28;20225;-71
2021/12/13 15:11:24;;;;;;;12.90;10.57;;;;;;;10.55;66.41;99088.63;8297073;28;20231;-71
2021/12/13 15:15:32;;;;;;;13.10;11.80;;;;;;;10.76;65.74;99084.59;8299332;28;20512;-73
2021/12/13 15:19:36;;;;;;;13.17;11.10;;;;;;;10.79;65.81;99077.63;8299203;28;20235;-73
2021/12/13 15:23:43;;;;;;;13.90;10.77;;;;;;;10.79;65.62;99082.81;8296465;28;20431;-70
2021/12/13 15:27:46;;;;;;;14.87;13.27;;;;;;;10.81;65.72;99078.44;8298893;28;20228;-72
2021/12/13 15:31:51;;;;;;;15.17;13.53;;;;;;;10.67;65.94;99078.81;8298945;28;20232;-81
2021/12/13 15:35:57;;;;;;;12.70;10.97;;;;;;;10.81;65.52;99073.25;8298897;28;20231;-80
2021/12/13 15:40:09;;;;;;;12.97;10.87;;;;;;;10.78;65.63;99076.78;8306752;28;20528;-82
2021/12/13 15:44:13;;;;;;;12.97;11.57;;;;;;;10.76;65.36;99078.56;8312386;28;20397;-82
2021/12/13 15:52:38;;;;;;;13.57;11.70;;;;;;;10.59;66.16;99084.22;8313205;28;20243;-79
2021/12/13 15:56:45;;;;;;;14.77;11.47;;;;;;;10.74;65.51;99081.22;8314641;28;20235;-81
2021/12/13 16:00:50;;;;;;;14.10;11.37;;;;;;;10.75;65.26;99087.22;8314407;28;20240;-82
2021/12/13 16:04:55;;;;;;;14.17;11.60;;;;;;;10.80;65.48;99092.31;8314154;28;20252;-81
2021/12/13 16:09:05;;;;;;;17.67;13.57;;;;;;;10.72;65.60;99095.94;8314253;28;20229;-82
2021/12/13 16:13:10;;;;;;;12.40;11.07;;;;;;;10.60;66.00;99100.59;8303521;28;20241;-85
2021/12/13 16:17:17;;;;;;;13.47;12.07;;;;;;;10.61;66.26;99100.56;8313562;28;20224;-82
2021/12/13 16:21:26;;;;;;;13.60;12.20;;;;;;;10.55;65.92;99091.22;8313864;28;20458;-71
2021/12/13 16:25:35;;;;;;;14.63;12.50;;;;;;;10.55;66.19;99098.97;8315065;28;20243;-70
2021/12/13 16:29:40;;;;;;;14.03;12.43;;;;;;;10.56;66.18;99098.06;8314854;28;20232;-72
2021/12/13 16:33:46;;;;;;;16.13;13.57;;;;;;;10.59;66.35;99104.94;8315058;28;20256;-71
2021/12/13 16:37:51;;;;;;;15.30;13.23;;;;;;;10.52;66.74;99103.38;8315100;28;20232;-70
2021/12/13 16:41:56;;;;;;;13.83;12.33;;;;;;;10.59;65.88;99094.56;8339528;28;20236;-72
2021/12/13 16:46:01;;;;;;;14.50;12.03;;;;;;;10.57;66.51;99093.75;8314620;28;20241;-72
2021/12/13 16:50:07;;;;;;;16.33;13.87;;;;;;;10.58;66.29;99095.44;8314187;28;20233;-70
2021/12/13 16:54:15;;;;;;;14.83;12.70;;;;;;;10.59;66.16;99099.75;8314078;28;20267;-70
2021/12/13 16:58:18;;;;;;;14.00;12.10;;;;;;;10.62;65.93;99099.66;8313489;28;20509;-73
2021/12/13 17:02:26;;;;;;;14.00;12.07;;;;;;;10.62;65.89;99102.25;8304545;28;20229;-70
2021/12/13 17:06:29;;;;;;;12.50;11.20;;;;;;;10.63;65.75;99114.31;8320095;28;20597;-71
2021/12/13 17:10:36;;;;;;;13.83;11.83;;;;;;;10.79;65.10;99106.13;8342709;28;20238;-71
2021/12/13 17:14:48;;;;;;;14.83;13.33;;;;;;;10.70;65.27;99097.72;8351158;28;20247;-69
2021/12/13 17:19:03;;;;;;;15.20;13.60;;;;;;;10.78;64.90;99101.88;8324702;28;20407;-76
2021/12/13 17:23:19;;;;;;;18.17;15.43;;;;;;;10.67;65.75;99100.38;8319880;28;20239;-70
2021/12/13 17:27:24;;;;;;;24.93;20.63;;;;;;;10.67;65.96;99099.56;8316445;28;20225;-70
2021/12/13 17:31:44;;;;;;;21.93;19.00;;;;;;;10.71;65.64;99099.41;8286906;28;20233;-80
2021/12/13 17:35:48;;;;;;;23.33;18.80;;;;;;;10.62;66.48;99098.81;8293096;28;20237;-80
2021/12/13 17:39:58;;;;;;;25.20;20.43;;;;;;;10.58;65.87;99105.81;8303315;28;20244;-80
2021/12/13 17:44:15;;;;;;;20.83;17.57;;;;;;;10.41;66.83;99108.00;8342518;28;20557;-83
2021/12/13 17:48:23;;;;;;;23.20;18.30;;;;;;;10.36;67.29;99105.53;8312768;28;20425;-79
2021/12/13 17:52:44;;;;;;;19.23;16.23;;;;;;;10.56;65.96;99113.59;8349340;28;20243;-80
2021/12/13 17:56:50;;;;;;;20.57;17.20;;;;;;;10.78;65.70;99110.47;8351272;28;20235;-81
2021/12/13 18:00:56;;;;;;;21.60;17.80;;;;;;;10.80;65.78;99111.28;8350932;28;20236;-85
2021/12/13 18:05:07;;;;;;;24.70;18.70;;;;;;;10.80;65.46;99110.44;8351025;28;20244;-85
2021/12/13 18:09:29;;;;;;;27.70;20.60;;;;;;;10.85;65.46;99113.72;8351417;28;20255;-85
2021/12/13 18:13:41;;;;;;;24.40;20.40;;;;;;;10.82;65.68;99113.84;8327854;28;20224;-85
2021/12/13 18:17:48;;;;;;;26.80;22.50;;;;;;;10.82;65.58;99098.28;8303173;28;20431;-87
2021/12/13 18:21:51;;;;;;;28.63;22.07;;;;;;;10.74;65.69;99108.88;8298530;28;20429;-86
2021/12/13 18:26:04;;;;;;;27.10;20.27;;;;;;;10.67;65.90;99107.31;8314653;28;20243;-87
2021/12/13 18:30:11;;;;;;;26.40;21.10;;;;;;;10.64;66.47;99113.44;8317367;28;20232;-81
2021/12/13 18:34:26;;;;;;;22.93;18.57;;;;;;;10.75;66.08;99126.09;8308695;28;20237;-83
2021/12/13 18:38:42;;;;;;;28.20;21.73;;;;;;;10.69;65.75;99116.75;8317226;28;20255;-81
2021/12/13 18:43:00;;;;;;;24.27;20.40;;;;;;;10.73;65.65;99120.09;8331019;28;20228;-85
2021/12/13 18:47:13;;;;;;;25.60;21.67;;;;;;;10.61;66.33;99115.25;8350201;28;20442;-86
2021/12/13 18:51:17;;;;;;;24.97;19.53;;;;;;;10.51;67.17;99109.47;8320822;28;20229;-80
2021/12/13 18:55:23;;;;;;;24.23;19.63;;;;;;;10.66;66.31;99118.56;8316785;28;20241;-83
2021/12/13 18:59:33;;;;;;;25.40;20.40;;;;;;;10.49;66.66;99122.47;8316541;28;20247;-82
2021/12/13 19:03:39;;;;;;;25.40;20.33;;;;;;;10.59;66.53;99122.22;8316703;28;20237;-81
2021/12/13 19:07:49;;;;;;;35.43;17.13;;;;;;;12.51;72.12;99132.13;8316524;28;20228;-75
2021/12/13 19:12:02;;;;;;;25.23;19.90;;;;;;;11.69;64.16;99124.28;8316362;28;20233;-83
2021/12/13 19:16:09;;;;;;;24.27;20.67;;;;;;;11.33;64.48;99121.88;8316131;28;20527;-85
2021/12/13 19:20:24;;;;;;;32.30;25.57;;;;;;;11.10;64.71;99119.09;8283230;28;20240;-81
2021/12/13 19:24:30;;;;;;;27.83;22.33;;;;;;;10.82;66.23;99117.28;8283371;28;20234;-82
2021/12/13 19:28:44;;;;;;;25.17;21.87;;;;;;;10.47;66.97;99123.38;8283539;28;20321;-84
2021/12/13 19:33:00;;;;;;;25.77;22.20;;;;;;;10.60;66.21;99113.53;8295894;28;20506;-82
2021/12/13 19:37:08;;;;;;;32.43;24.60;;;;;;;10.62;66.40;99111.75;8315687;28;20243;-86